sensor_id;sensor_type;location;lat;lon;timestamp;temperature;humidity
23597;DHT22;40226;50.874;4.394;2022-07-22T00:01:06;18.20;99.90
23597;DHT22;40226;50.874;4.394;2022-07-22T00:03:32;18.10;99.90
23597;DHT22;40226;50.874;4.394;2022-07-22T00:05:58;18.10;99.90
23597;DHT22;40226;50.874;4.394;2022-07-22T00:08:23;18.00;99.90
23597;DHT22;40226;50.874;4.394;2022-07-22T00:10:49;17.90;99.90
23597;DHT22;40226;50.874;4.394;2022-07-22T00:13:14;18.00;99.90
23597;DHT22;40226;50.874;4.394;2022-07-22T00:15:40;18.10;99.90
23597;DHT22;40226;50.874;4.394;2022-07-22T00:18:06;18.20;99.90
23597;DHT22;40226;50.874;4.394;2022-07-22T00:20:31;18.10;99.90
23597;DHT22;40226;50.874;4.394;2022-07-22T00:22:57;17.90;99.90
23597;DHT22;40226;50.874;4.394;2022-07-22T00:25:23;18.10;99.90
23597;DHT22;40226;50.874;4.394;2022-07-22T00:27:48;17.90;99.90
23597;DHT22;40226;50.874;4.394;2022-07-22T00:30:14;17.90;99.90
23597;DHT22;40226;50.874;4.394;2022-07-22T00:32:40;18.00;99.90
23597;DHT22;40226;50.874;4.394;2022-07-22T00:35:06;18.00;99.90
23597;DHT22;40226;50.874;4.394;2022-07-22T00:37:32;17.90;99.90
23597;DHT22;40226;50.874;4.394;2022-07-22T00:39:57;18.00;99.90
23597;DHT22;40226;50.874;4.394;2022-07-22T00:42:23;18.10;99.90
23597;DHT22;40226;50.874;4.394;2022-07-22T00:44:49;18.00;99.90
23597;DHT22;40226;50.874;4.394;2022-07-22T00:47:14;18.10;99.90
23597;DHT22;40226;50.874;4.394;2022-07-22T00:49:40;18.00;99.90
23597;DHT22;40226;50.874;4.394;2022-07-22T00:52:06;18.00;99.90
23597;DHT22;40226;50.874;4.394;2022-07-22T00:54:32;18.10;99.90
23597;DHT22;40226;50.874;4.394;2022-07-22T00:56:58;18.20;99.90
23597;DHT22;40226;50.874;4.394;2022-07-22T00:59:25;18.10;99.90
23597;DHT22;40226;50.874;4.394;2022-07-22T01:01:50;17.90;99.90
23597;DHT22;40226;50.874;4.394;2022-07-22T01:04:17;17.70;99.90
23597;DHT22;40226;50.874;4.394;2022-07-22T01:06:42;17.80;99.90
23597;DHT22;40226;50.874;4.394;2022-07-22T01:09:10;17.70;99.90
23597;DHT22;40226;50.874;4.394;2022-07-22T01:11:36;17.60;99.90
23597;DHT22;40226;50.874;4.394;2022-07-22T01:14:38;17.70;99.90
23597;DHT22;40226;50.874;4.394;2022-07-22T01:17:04;17.80;99.90
23597;DHT22;40226;50.874;4.394;2022-07-22T01:19:29;17.80;99.90
23597;DHT22;40226;50.874;4.394;2022-07-22T01:21:55;17.80;99.90
23597;DHT22;40226;50.874;4.394;2022-07-22T01:24:21;17.60;99.90
23597;DHT22;40226;50.874;4.394;2022-07-22T01:26:47;17.70;99.90
23597;DHT22;40226;50.874;4.394;2022-07-22T01:29:13;17.70;99.90
23597;DHT22;40226;50.874;4.394;2022-07-22T01:31:39;17.50;99.90
23597;DHT22;40226;50.874;4.394;2022-07-22T01:34:05;17.60;99.90
23597;DHT22;40226;50.874;4.394;2022-07-22T01:36:30;17.70;99.90
23597;DHT22;40226;50.874;4.394;2022-07-22T01:38:56;17.90;99.90
23597;DHT22;40226;50.874;4.394;2022-07-22T01:41:22;17.80;99.90
23597;DHT22;40226;50.874;4.394;2022-07-22T01:43:48;17.60;99.90
23597;DHT22;40226;50.874;4.394;2022-07-22T01:46:14;17.30;99.90
23597;DHT22;40226;50.874;4.394;2022-07-22T01:48:40;17.20;99.90
23597;DHT22;40226;50.874;4.394;2022-07-22T01:51:06;17.20;99.90
23597;DHT22;40226;50.874;4.394;2022-07-22T01:53:31;17.40;99.90
23597;DHT22;40226;50.874;4.394;2022-07-22T01:55:57;17.30;99.90
23597;DHT22;40226;50.874;4.394;2022-07-22T01:58:23;17.30;99.90
23597;DHT22;40226;50.874;4.394;2022-07-22T02:00:49;17.50;99.90
23597;DHT22;40226;50.874;4.394;2022-07-22T02:03:14;17.40;99.90
23597;DHT22;40226;50.874;4.394;2022-07-22T02:05:40;17.40;99.90
23597;DHT22;40226;50.874;4.394;2022-07-22T02:08:08;17.50;99.90
23597;DHT22;40226;50.874;4.394;2022-07-22T02:10:34;17.40;99.90
23597;DHT22;40226;50.874;4.394;2022-07-22T02:13:00;17.30;99.90
23597;DHT22;40226;50.874;4.394;2022-07-22T02:15:26;17.20;99.90
23597;DHT22;40226;50.874;4.394;2022-07-22T02:17:52;17.30;99.90
23597;DHT22;40226;50.874;4.394;2022-07-22T02:20:18;17.10;99.90
23597;DHT22;40226;50.874;4.394;2022-07-22T02:22:44;17.00;99.90
23597;DHT22;40226;50.874;4.394;2022-07-22T02:25:10;17.00;99.90
23597;DHT22;40226;50.874;4.394;2022-07-22T02:27:36;17.00;99.90
23597;DHT22;40226;50.874;4.394;2022-07-22T02:30:04;17.10;99.90
23597;DHT22;40226;50.874;4.394;2022-07-22T02:32:30;17.10;99.90
23597;DHT22;40226;50.874;4.394;2022-07-22T02:34:56;16.90;99.90
23597;DHT22;40226;50.874;4.394;2022-07-22T02:37:22;17.00;99.90
23597;DHT22;40226;50.874;4.394;2022-07-22T02:39:47;17.00;99.90
23597;DHT22;40226;50.874;4.394;2022-07-22T02:42:13;17.20;99.90
23597;DHT22;40226;50.874;4.394;2022-07-22T02:44:38;17.20;99.90
23597;DHT22;40226;50.874;4.394;2022-07-22T02:47:04;17.00;99.90
23597;DHT22;40226;50.874;4.394;2022-07-22T02:49:30;16.80;99.90
23597;DHT22;40226;50.874;4.394;2022-07-22T02:51:55;16.70;99.90
23597;DHT22;40226;50.874;4.394;2022-07-22T02:54:21;16.90;99.90
23597;DHT22;40226;50.874;4.394;2022-07-22T02:56:47;16.90;99.90
23597;DHT22;40226;50.874;4.394;2022-07-22T02:59:12;16.90;99.90
23597;DHT22;40226;50.874;4.394;2022-07-22T03:01:38;16.80;99.90
23597;DHT22;40226;50.874;4.394;2022-07-22T03:04:04;16.80;99.90
23597;DHT22;40226;50.874;4.394;2022-07-22T03:06:29;16.60;99.90
23597;DHT22;40226;50.874;4.394;2022-07-22T03:08:55;16.60;99.90
23597;DHT22;40226;50.874;4.394;2022-07-22T03:11:22;16.60;99.90
23597;DHT22;40226;50.874;4.394;2022-07-22T03:13:47;16.50;99.90
23597;DHT22;40226;50.874;4.394;2022-07-22T03:16:13;16.50;99.90
23597;DHT22;40226;50.874;4.394;2022-07-22T03:18:38;16.50;99.90
23597;DHT22;40226;50.874;4.394;2022-07-22T03:21:04;16.50;99.90
23597;DHT22;40226;50.874;4.394;2022-07-22T03:23:30;16.40;99.90
23597;DHT22;40226;50.874;4.394;2022-07-22T03:25:56;16.60;99.90
23597;DHT22;40226;50.874;4.394;2022-07-22T03:28:22;16.80;99.90
23597;DHT22;40226;50.874;4.394;2022-07-22T03:30:48;16.50;99.90
23597;DHT22;40226;50.874;4.394;2022-07-22T03:33:13;16.60;99.90
23597;DHT22;40226;50.874;4.394;2022-07-22T03:35:39;16.70;99.90
23597;DHT22;40226;50.874;4.394;2022-07-22T03:38:05;16.70;99.90
23597;DHT22;40226;50.874;4.394;2022-07-22T03:40:31;16.50;99.90
23597;DHT22;40226;50.874;4.394;2022-07-22T03:42:56;16.40;99.90
23597;DHT22;40226;50.874;4.394;2022-07-22T03:45:22;16.50;99.90
23597;DHT22;40226;50.874;4.394;2022-07-22T03:47:47;16.50;99.90
23597;DHT22;40226;50.874;4.394;2022-07-22T03:50:13;16.30;99.90
23597;DHT22;40226;50.874;4.394;2022-07-22T03:52:39;16.10;99.90
23597;DHT22;40226;50.874;4.394;2022-07-22T03:55:05;16.30;99.90
23597;DHT22;40226;50.874;4.394;2022-07-22T03:57:31;16.60;99.90
23597;DHT22;40226;50.874;4.394;2022-07-22T03:59:57;16.60;99.90
23597;DHT22;40226;50.874;4.394;2022-07-22T04:02:22;16.60;99.90
23597;DHT22;40226;50.874;4.394;2022-07-22T04:04:48;16.50;99.90
23597;DHT22;40226;50.874;4.394;2022-07-22T04:07:13;16.60;99.90
23597;DHT22;40226;50.874;4.394;2022-07-22T04:09:39;16.70;99.90
23597;DHT22;40226;50.874;4.394;2022-07-22T04:12:04;16.60;99.90
23597;DHT22;40226;50.874;4.394;2022-07-22T04:14:30;16.50;99.90
23597;DHT22;40226;50.874;4.394;2022-07-22T04:16:56;16.40;99.90
23597;DHT22;40226;50.874;4.394;2022-07-22T04:19:21;16.40;99.90
23597;DHT22;40226;50.874;4.394;2022-07-22T04:21:47;16.40;99.90
23597;DHT22;40226;50.874;4.394;2022-07-22T04:24:12;16.30;99.90
23597;DHT22;40226;50.874;4.394;2022-07-22T04:26:38;16.50;99.90
23597;DHT22;40226;50.874;4.394;2022-07-22T04:29:04;16.60;99.90
23597;DHT22;40226;50.874;4.394;2022-07-22T04:31:30;16.70;99.90
23597;DHT22;40226;50.874;4.394;2022-07-22T04:33:57;16.70;99.90
23597;DHT22;40226;50.874;4.394;2022-07-22T04:36:22;16.80;99.90
23597;DHT22;40226;50.874;4.394;2022-07-22T04:38:48;16.80;99.90
23597;DHT22;40226;50.874;4.394;2022-07-22T04:41:15;16.80;99.90
23597;DHT22;40226;50.874;4.394;2022-07-22T04:43:41;16.80;99.90
23597;DHT22;40226;50.874;4.394;2022-07-22T04:46:06;16.70;99.90
23597;DHT22;40226;50.874;4.394;2022-07-22T04:48:32;16.80;99.90
23597;DHT22;40226;50.874;4.394;2022-07-22T04:51:01;16.70;99.90
23597;DHT22;40226;50.874;4.394;2022-07-22T04:53:27;16.80;99.90
23597;DHT22;40226;50.874;4.394;2022-07-22T04:55:53;16.90;99.90
23597;DHT22;40226;50.874;4.394;2022-07-22T04:58:19;17.00;99.90
23597;DHT22;40226;50.874;4.394;2022-07-22T05:00:45;17.10;99.90
23597;DHT22;40226;50.874;4.394;2022-07-22T05:03:12;17.20;99.90
23597;DHT22;40226;50.874;4.394;2022-07-22T05:05:37;17.40;99.90
23597;DHT22;40226;50.874;4.394;2022-07-22T05:08:03;17.40;99.90
23597;DHT22;40226;50.874;4.394;2022-07-22T05:10:29;17.40;99.90
23597;DHT22;40226;50.874;4.394;2022-07-22T05:12:55;17.50;99.90
23597;DHT22;40226;50.874;4.394;2022-07-22T05:15:20;17.50;99.90
23597;DHT22;40226;50.874;4.394;2022-07-22T05:17:46;17.70;99.90
23597;DHT22;40226;50.874;4.394;2022-07-22T05:20:12;17.60;99.90
23597;DHT22;40226;50.874;4.394;2022-07-22T05:22:37;17.50;99.90
23597;DHT22;40226;50.874;4.394;2022-07-22T05:25:03;17.60;99.90
23597;DHT22;40226;50.874;4.394;2022-07-22T05:27:30;18.00;99.90
23597;DHT22;40226;50.874;4.394;2022-07-22T05:30:17;18.20;99.90
23597;DHT22;40226;50.874;4.394;2022-07-22T05:33:22;18.50;99.90
23597;DHT22;40226;50.874;4.394;2022-07-22T05:36:10;18.10;99.90
23597;DHT22;40226;50.874;4.394;2022-07-22T05:39:16;18.20;99.90
23597;DHT22;40226;50.874;4.394;2022-07-22T05:41:53;18.30;99.90
23597;DHT22;40226;50.874;4.394;2022-07-22T05:44:21;18.40;99.90
23597;DHT22;40226;50.874;4.394;2022-07-22T05:46:47;18.50;99.90
23597;DHT22;40226;50.874;4.394;2022-07-22T05:49:34;18.50;99.90
23597;DHT22;40226;50.874;4.394;2022-07-22T05:51:59;18.50;99.90
23597;DHT22;40226;50.874;4.394;2022-07-22T05:54:27;18.30;99.90
23597;DHT22;40226;50.874;4.394;2022-07-22T05:56:53;18.10;99.90
23597;DHT22;40226;50.874;4.394;2022-07-22T05:59:19;18.30;99.90
23597;DHT22;40226;50.874;4.394;2022-07-22T06:01:44;18.50;99.90
23597;DHT22;40226;50.874;4.394;2022-07-22T06:04:10;18.50;99.90
23597;DHT22;40226;50.874;4.394;2022-07-22T06:06:35;18.50;99.90
23597;DHT22;40226;50.874;4.394;2022-07-22T06:09:01;18.70;99.90
23597;DHT22;40226;50.874;4.394;2022-07-22T06:11:27;18.60;99.90
23597;DHT22;40226;50.874;4.394;2022-07-22T06:13:52;18.40;99.90
23597;DHT22;40226;50.874;4.394;2022-07-22T06:16:18;18.30;99.90
23597;DHT22;40226;50.874;4.394;2022-07-22T06:18:44;18.50;99.90
23597;DHT22;40226;50.874;4.394;2022-07-22T06:21:10;18.70;99.90
23597;DHT22;40226;50.874;4.394;2022-07-22T06:23:35;18.80;99.90
23597;DHT22;40226;50.874;4.394;2022-07-22T06:26:01;18.60;99.90
23597;DHT22;40226;50.874;4.394;2022-07-22T06:28:26;18.50;99.90
23597;DHT22;40226;50.874;4.394;2022-07-22T06:30:52;18.50;99.90
23597;DHT22;40226;50.874;4.394;2022-07-22T06:33:18;18.60;99.90
23597;DHT22;40226;50.874;4.394;2022-07-22T06:35:43;18.80;99.90
23597;DHT22;40226;50.874;4.394;2022-07-22T06:38:09;18.90;99.90
23597;DHT22;40226;50.874;4.394;2022-07-22T06:40:35;19.10;99.90
23597;DHT22;40226;50.874;4.394;2022-07-22T06:43:00;19.20;99.90
23597;DHT22;40226;50.874;4.394;2022-07-22T06:45:27;19.40;99.90
23597;DHT22;40226;50.874;4.394;2022-07-22T06:47:52;19.30;99.90
23597;DHT22;40226;50.874;4.394;2022-07-22T06:50:18;19.30;99.90
23597;DHT22;40226;50.874;4.394;2022-07-22T06:52:44;19.60;99.90
23597;DHT22;40226;50.874;4.394;2022-07-22T06:55:10;19.70;99.90
23597;DHT22;40226;50.874;4.394;2022-07-22T06:57:35;20.00;99.90
23597;DHT22;40226;50.874;4.394;2022-07-22T07:00:03;20.30;99.90
23597;DHT22;40226;50.874;4.394;2022-07-22T07:02:29;20.30;99.90
23597;DHT22;40226;50.874;4.394;2022-07-22T07:04:54;20.40;99.90
23597;DHT22;40226;50.874;4.394;2022-07-22T07:07:20;20.40;99.90
23597;DHT22;40226;50.874;4.394;2022-07-22T07:09:46;20.80;99.90
23597;DHT22;40226;50.874;4.394;2022-07-22T07:12:12;21.00;99.90
23597;DHT22;40226;50.874;4.394;2022-07-22T07:14:37;20.90;99.90
23597;DHT22;40226;50.874;4.394;2022-07-22T07:17:03;20.60;99.90
23597;DHT22;40226;50.874;4.394;2022-07-22T07:19:29;20.50;99.90
23597;DHT22;40226;50.874;4.394;2022-07-22T07:21:54;20.50;99.90
23597;DHT22;40226;50.874;4.394;2022-07-22T07:24:20;20.50;99.90
23597;DHT22;40226;50.874;4.394;2022-07-22T07:26:45;20.70;99.90
23597;DHT22;40226;50.874;4.394;2022-07-22T07:29:11;20.80;99.90
23597;DHT22;40226;50.874;4.394;2022-07-22T07:31:37;21.00;99.90
23597;DHT22;40226;50.874;4.394;2022-07-22T07:34:02;21.00;99.90
23597;DHT22;40226;50.874;4.394;2022-07-22T07:36:28;21.20;99.90
23597;DHT22;40226;50.874;4.394;2022-07-22T07:38:54;21.10;99.90
23597;DHT22;40226;50.874;4.394;2022-07-22T07:41:19;21.00;99.90
23597;DHT22;40226;50.874;4.394;2022-07-22T07:43:45;21.20;99.90
23597;DHT22;40226;50.874;4.394;2022-07-22T07:46:10;21.30;99.90
23597;DHT22;40226;50.874;4.394;2022-07-22T07:48:36;21.30;99.90
23597;DHT22;40226;50.874;4.394;2022-07-22T07:51:02;21.40;99.90
23597;DHT22;40226;50.874;4.394;2022-07-22T07:53:27;21.70;99.90
23597;DHT22;40226;50.874;4.394;2022-07-22T07:55:53;21.70;99.90
23597;DHT22;40226;50.874;4.394;2022-07-22T07:58:19;21.40;99.90
23597;DHT22;40226;50.874;4.394;2022-07-22T08:00:45;21.60;99.90
23597;DHT22;40226;50.874;4.394;2022-07-22T08:03:11;21.40;99.90
23597;DHT22;40226;50.874;4.394;2022-07-22T08:05:37;21.50;99.90
23597;DHT22;40226;50.874;4.394;2022-07-22T08:08:05;21.30;99.90
23597;DHT22;40226;50.874;4.394;2022-07-22T08:10:31;21.10;99.90
23597;DHT22;40226;50.874;4.394;2022-07-22T08:12:56;21.10;99.90
23597;DHT22;40226;50.874;4.394;2022-07-22T08:15:24;21.50;99.90
23597;DHT22;40226;50.874;4.394;2022-07-22T08:17:49;21.80;99.90
23597;DHT22;40226;50.874;4.394;2022-07-22T08:20:15;21.70;99.90
23597;DHT22;40226;50.874;4.394;2022-07-22T08:22:41;21.40;99.90
23597;DHT22;40226;50.874;4.394;2022-07-22T08:25:06;21.60;99.90
23597;DHT22;40226;50.874;4.394;2022-07-22T08:27:34;21.80;99.90
23597;DHT22;40226;50.874;4.394;2022-07-22T08:29:59;21.70;99.90
23597;DHT22;40226;50.874;4.394;2022-07-22T08:32:25;21.70;99.90
23597;DHT22;40226;50.874;4.394;2022-07-22T08:34:51;21.80;99.90
23597;DHT22;40226;50.874;4.394;2022-07-22T08:37:17;22.00;99.90
23597;DHT22;40226;50.874;4.394;2022-07-22T08:39:43;21.80;99.90
23597;DHT22;40226;50.874;4.394;2022-07-22T08:42:09;21.80;99.90
23597;DHT22;40226;50.874;4.394;2022-07-22T08:44:34;21.90;99.90
23597;DHT22;40226;50.874;4.394;2022-07-22T08:47:00;22.00;99.90
23597;DHT22;40226;50.874;4.394;2022-07-22T08:49:26;22.00;99.90
23597;DHT22;40226;50.874;4.394;2022-07-22T08:51:53;22.20;99.90
23597;DHT22;40226;50.874;4.394;2022-07-22T08:54:18;22.00;99.90
23597;DHT22;40226;50.874;4.394;2022-07-22T08:56:51;21.70;99.90
23597;DHT22;40226;50.874;4.394;2022-07-22T08:59:17;22.20;99.90
23597;DHT22;40226;50.874;4.394;2022-07-22T09:02:06;22.00;99.90
23597;DHT22;40226;50.874;4.394;2022-07-22T09:04:32;22.20;99.90
23597;DHT22;40226;50.874;4.394;2022-07-22T09:07:26;22.00;99.90
23597;DHT22;40226;50.874;4.394;2022-07-22T09:09:52;22.00;99.90
23597;DHT22;40226;50.874;4.394;2022-07-22T09:12:18;22.60;99.90
23597;DHT22;40226;50.874;4.394;2022-07-22T09:14:51;22.90;99.90
23597;DHT22;40226;50.874;4.394;2022-07-22T09:17:34;22.90;99.90
23597;DHT22;40226;50.874;4.394;2022-07-22T09:20:02;23.20;99.90
23597;DHT22;40226;50.874;4.394;2022-07-22T09:27:49;24.20;99.90
23597;DHT22;40226;50.874;4.394;2022-07-22T09:30:21;24.20;99.90
23597;DHT22;40226;50.874;4.394;2022-07-22T09:32:47;24.30;99.90
23597;DHT22;40226;50.874;4.394;2022-07-22T09:35:13;23.90;99.90
23597;DHT22;40226;50.874;4.394;2022-07-22T09:37:50;23.70;99.90
23597;DHT22;40226;50.874;4.394;2022-07-22T09:40:30;23.60;99.90
23597;DHT22;40226;50.874;4.394;2022-07-22T09:43:02;24.00;99.90
23597;DHT22;40226;50.874;4.394;2022-07-22T09:45:30;24.40;99.90
23597;DHT22;40226;50.874;4.394;2022-07-22T09:47:58;24.20;99.90
23597;DHT22;40226;50.874;4.394;2022-07-22T09:50:30;24.20;99.90
23597;DHT22;40226;50.874;4.394;2022-07-22T09:52:57;24.30;99.90
23597;DHT22;40226;50.874;4.394;2022-07-22T09:55:25;23.90;99.90
23597;DHT22;40226;50.874;4.394;2022-07-22T09:57:52;24.40;99.90
23597;DHT22;40226;50.874;4.394;2022-07-22T10:00:26;24.30;99.90
23597;DHT22;40226;50.874;4.394;2022-07-22T10:03:01;24.10;99.90
23597;DHT22;40226;50.874;4.394;2022-07-22T10:05:29;24.10;99.90
23597;DHT22;40226;50.874;4.394;2022-07-22T10:07:56;23.70;99.90
23597;DHT22;40226;50.874;4.394;2022-07-22T10:10:24;23.80;99.90
23597;DHT22;40226;50.874;4.394;2022-07-22T10:12:53;24.20;99.90
23597;DHT22;40226;50.874;4.394;2022-07-22T10:15:20;24.80;99.90
23597;DHT22;40226;50.874;4.394;2022-07-22T10:17:51;24.90;99.90
23597;DHT22;40226;50.874;4.394;2022-07-22T10:20:23;24.20;99.90
23597;DHT22;40226;50.874;4.394;2022-07-22T10:25:19;24.60;99.90
23597;DHT22;40226;50.874;4.394;2022-07-22T10:27:49;24.60;99.90
23597;DHT22;40226;50.874;4.394;2022-07-22T10:30:21;24.10;99.90
23597;DHT22;40226;50.874;4.394;2022-07-22T10:33:10;24.20;99.90
23597;DHT22;40226;50.874;4.394;2022-07-22T10:38:09;24.90;99.90
23597;DHT22;40226;50.874;4.394;2022-07-22T10:43:17;25.30;99.90
23597;DHT22;40226;50.874;4.394;2022-07-22T10:45:58;25.10;99.90
23597;DHT22;40226;50.874;4.394;2022-07-22T11:01:16;25.20;99.90
23597;DHT22;40226;50.874;4.394;2022-07-22T11:03:44;24.80;99.90
23597;DHT22;40226;50.874;4.394;2022-07-22T11:08:40;25.00;99.90
23597;DHT22;40226;50.874;4.394;2022-07-22T11:11:05;24.90;99.90
23597;DHT22;40226;50.874;4.394;2022-07-22T11:13:36;25.00;99.90
23597;DHT22;40226;50.874;4.394;2022-07-22T11:19:00;25.10;99.90
23597;DHT22;40226;50.874;4.394;2022-07-22T11:21:28;25.80;99.90
23597;DHT22;40226;50.874;4.394;2022-07-22T11:23:56;26.50;99.90
23597;DHT22;40226;50.874;4.394;2022-07-22T11:26:41;27.10;98.20
23597;DHT22;40226;50.874;4.394;2022-07-22T11:29:09;27.40;96.50
23597;DHT22;40226;50.874;4.394;2022-07-22T11:31:36;27.50;95.60
23597;DHT22;40226;50.874;4.394;2022-07-22T11:34:09;28.10;93.80
23597;DHT22;40226;50.874;4.394;2022-07-22T11:36:38;28.50;92.60
23597;DHT22;40226;50.874;4.394;2022-07-22T11:39:06;28.50;91.10
23597;DHT22;40226;50.874;4.394;2022-07-22T11:41:33;27.90;91.80
23597;DHT22;40226;50.874;4.394;2022-07-22T11:43:59;28.10;91.70
23597;DHT22;40226;50.874;4.394;2022-07-22T11:46:25;27.50;91.70
23597;DHT22;40226;50.874;4.394;2022-07-22T11:48:52;27.70;91.50
23597;DHT22;40226;50.874;4.394;2022-07-22T11:51:18;27.10;92.90
23597;DHT22;40226;50.874;4.394;2022-07-22T11:53:44;27.20;92.30
23597;DHT22;40226;50.874;4.394;2022-07-22T11:56:11;26.90;93.80
23597;DHT22;40226;50.874;4.394;2022-07-22T11:58:39;27.00;94.50
23597;DHT22;40226;50.874;4.394;2022-07-22T12:01:06;27.10;94.70
23597;DHT22;40226;50.874;4.394;2022-07-22T12:03:37;27.00;94.30
23597;DHT22;40226;50.874;4.394;2022-07-22T12:06:07;27.30;94.30
23597;DHT22;40226;50.874;4.394;2022-07-22T12:08:39;27.40;93.60
23597;DHT22;40226;50.874;4.394;2022-07-22T12:11:05;27.10;94.40
23597;DHT22;40226;50.874;4.394;2022-07-22T12:13:32;27.30;93.80
23597;DHT22;40226;50.874;4.394;2022-07-22T12:15:58;27.10;95.00
23597;DHT22;40226;50.874;4.394;2022-07-22T12:18:26;27.50;93.60
23597;DHT22;40226;50.874;4.394;2022-07-22T12:20:53;27.60;93.40
23597;DHT22;40226;50.874;4.394;2022-07-22T12:23:20;28.00;92.40
23597;DHT22;40226;50.874;4.394;2022-07-22T12:25:58;28.70;90.00
23597;DHT22;40226;50.874;4.394;2022-07-22T12:28:24;28.20;90.80
23597;DHT22;40226;50.874;4.394;2022-07-22T12:30:52;27.80;91.50
23597;DHT22;40226;50.874;4.394;2022-07-22T12:33:20;27.60;91.30
23597;DHT22;40226;50.874;4.394;2022-07-22T12:36:06;27.10;92.40
23597;DHT22;40226;50.874;4.394;2022-07-22T12:38:33;27.50;92.30
23597;DHT22;40226;50.874;4.394;2022-07-22T12:41:24;27.70;91.90
23597;DHT22;40226;50.874;4.394;2022-07-22T12:43:52;27.60;91.90
23597;DHT22;40226;50.874;4.394;2022-07-22T12:46:17;27.00;93.70
23597;DHT22;40226;50.874;4.394;2022-07-22T12:48:54;27.50;93.00
23597;DHT22;40226;50.874;4.394;2022-07-22T12:51:20;27.50;92.20
23597;DHT22;40226;50.874;4.394;2022-07-22T12:53:45;27.70;92.40
23597;DHT22;40226;50.874;4.394;2022-07-22T12:56:11;28.00;91.70
23597;DHT22;40226;50.874;4.394;2022-07-22T12:58:37;28.70;90.50
23597;DHT22;40226;50.874;4.394;2022-07-22T13:01:07;28.80;90.10
23597;DHT22;40226;50.874;4.394;2022-07-22T13:03:33;28.90;88.50
23597;DHT22;40226;50.874;4.394;2022-07-22T13:06:00;28.50;90.20
23597;DHT22;40226;50.874;4.394;2022-07-22T13:08:27;28.30;90.80
23597;DHT22;40226;50.874;4.394;2022-07-22T13:10:54;28.50;90.40
23597;DHT22;40226;50.874;4.394;2022-07-22T13:13:21;28.40;90.70
23597;DHT22;40226;50.874;4.394;2022-07-22T13:15:48;28.40;90.40
23597;DHT22;40226;50.874;4.394;2022-07-22T13:18:14;29.00;88.60
23597;DHT22;40226;50.874;4.394;2022-07-22T13:20:40;28.80;87.40
23597;DHT22;40226;50.874;4.394;2022-07-22T13:23:06;28.90;86.90
23597;DHT22;40226;50.874;4.394;2022-07-22T13:25:32;29.10;86.80
23597;DHT22;40226;50.874;4.394;2022-07-22T13:27:58;28.70;87.60
23597;DHT22;40226;50.874;4.394;2022-07-22T13:30:24;28.60;88.00
23597;DHT22;40226;50.874;4.394;2022-07-22T13:32:50;27.90;90.30
23597;DHT22;40226;50.874;4.394;2022-07-22T13:35:16;28.00;90.80
23597;DHT22;40226;50.874;4.394;2022-07-22T13:37:43;27.50;91.10
23597;DHT22;40226;50.874;4.394;2022-07-22T13:40:09;26.70;93.00
23597;DHT22;40226;50.874;4.394;2022-07-22T13:42:35;25.80;94.90
23597;DHT22;40226;50.874;4.394;2022-07-22T13:45:00;25.60;96.40
23597;DHT22;40226;50.874;4.394;2022-07-22T13:47:26;25.80;97.40
23597;DHT22;40226;50.874;4.394;2022-07-22T13:49:53;26.00;97.60
23597;DHT22;40226;50.874;4.394;2022-07-22T13:52:19;26.30;96.40
23597;DHT22;40226;50.874;4.394;2022-07-22T13:54:44;26.60;96.30
23597;DHT22;40226;50.874;4.394;2022-07-22T13:57:10;26.30;96.00
23597;DHT22;40226;50.874;4.394;2022-07-22T13:59:37;26.60;96.60
23597;DHT22;40226;50.874;4.394;2022-07-22T14:02:04;26.90;96.00
23597;DHT22;40226;50.874;4.394;2022-07-22T14:04:29;27.00;95.30
23597;DHT22;40226;50.874;4.394;2022-07-22T14:06:55;27.60;94.50
23597;DHT22;40226;50.874;4.394;2022-07-22T14:09:20;28.30;92.70
23597;DHT22;40226;50.874;4.394;2022-07-22T14:11:46;28.00;92.70
23597;DHT22;40226;50.874;4.394;2022-07-22T14:14:12;27.40;93.70
23597;DHT22;40226;50.874;4.394;2022-07-22T14:16:39;27.20;94.20
23597;DHT22;40226;50.874;4.394;2022-07-22T14:19:11;27.20;94.00
23597;DHT22;40226;50.874;4.394;2022-07-22T14:21:39;27.50;94.30
23597;DHT22;40226;50.874;4.394;2022-07-22T14:24:06;26.90;94.80
23597;DHT22;40226;50.874;4.394;2022-07-22T14:26:34;26.50;97.00
23597;DHT22;40226;50.874;4.394;2022-07-22T14:28:59;26.90;97.00
23597;DHT22;40226;50.874;4.394;2022-07-22T14:31:25;26.70;97.70
23597;DHT22;40226;50.874;4.394;2022-07-22T14:33:51;26.40;98.50
23597;DHT22;40226;50.874;4.394;2022-07-22T14:36:17;26.10;99.40
23597;DHT22;40226;50.874;4.394;2022-07-22T14:38:43;25.70;99.90
23597;DHT22;40226;50.874;4.394;2022-07-22T14:41:09;25.50;99.90
23597;DHT22;40226;50.874;4.394;2022-07-22T14:43:35;25.80;99.90
23597;DHT22;40226;50.874;4.394;2022-07-22T14:46:02;25.70;99.90
23597;DHT22;40226;50.874;4.394;2022-07-22T14:48:30;25.10;99.90
23597;DHT22;40226;50.874;4.394;2022-07-22T14:50:57;25.50;99.90
23597;DHT22;40226;50.874;4.394;2022-07-22T14:53:22;25.10;99.90
23597;DHT22;40226;50.874;4.394;2022-07-22T14:55:50;24.90;99.90
23597;DHT22;40226;50.874;4.394;2022-07-22T14:58:16;25.00;99.90
23597;DHT22;40226;50.874;4.394;2022-07-22T15:00:42;24.70;99.90
23597;DHT22;40226;50.874;4.394;2022-07-22T15:03:07;24.80;99.90
23597;DHT22;40226;50.874;4.394;2022-07-22T15:05:33;25.20;99.90
23597;DHT22;40226;50.874;4.394;2022-07-22T15:07:59;25.10;99.90
23597;DHT22;40226;50.874;4.394;2022-07-22T15:10:24;25.30;99.90
23597;DHT22;40226;50.874;4.394;2022-07-22T15:12:50;24.90;99.90
23597;DHT22;40226;50.874;4.394;2022-07-22T15:15:16;24.90;99.90
23597;DHT22;40226;50.874;4.394;2022-07-22T15:17:41;24.90;99.90
23597;DHT22;40226;50.874;4.394;2022-07-22T15:20:09;24.70;99.90
23597;DHT22;40226;50.874;4.394;2022-07-22T15:22:35;24.70;99.90
23597;DHT22;40226;50.874;4.394;2022-07-22T15:25:02;24.50;99.90
23597;DHT22;40226;50.874;4.394;2022-07-22T15:27:28;24.80;99.90
23597;DHT22;40226;50.874;4.394;2022-07-22T15:29:53;25.10;99.90
23597;DHT22;40226;50.874;4.394;2022-07-22T15:32:19;24.60;99.90
23597;DHT22;40226;50.874;4.394;2022-07-22T15:34:45;24.90;99.90
23597;DHT22;40226;50.874;4.394;2022-07-22T15:37:11;25.30;99.90
23597;DHT22;40226;50.874;4.394;2022-07-22T15:39:37;25.70;99.90
23597;DHT22;40226;50.874;4.394;2022-07-22T15:42:03;25.60;99.90
23597;DHT22;40226;50.874;4.394;2022-07-22T15:44:29;26.10;99.90
23597;DHT22;40226;50.874;4.394;2022-07-22T15:46:55;26.20;99.90
23597;DHT22;40226;50.874;4.394;2022-07-22T15:49:22;26.40;99.90
23597;DHT22;40226;50.874;4.394;2022-07-22T15:51:48;26.30;99.90
23597;DHT22;40226;50.874;4.394;2022-07-22T15:54:14;26.10;99.90
23597;DHT22;40226;50.874;4.394;2022-07-22T15:56:40;25.90;99.90
23597;DHT22;40226;50.874;4.394;2022-07-22T15:59:05;25.70;99.90
23597;DHT22;40226;50.874;4.394;2022-07-22T16:01:49;25.60;99.90